createdAt,value
2018-04-22T00:01:26.547Z,5.50
2018-04-22T00:03:54.078Z,4.17
2018-04-22T00:06:21.642Z,4.90
2018-04-22T00:08:49.681Z,2.03
2018-04-22T00:11:17.250Z,5.30
2018-04-22T00:13:45.494Z,3.97
2018-04-22T00:16:14.834Z,3.67
2018-04-22T00:18:43.421Z,5.87
2018-04-22T00:21:10.995Z,5.17
2018-04-22T00:23:38.605Z,5.33
2018-04-22T00:26:06.132Z,2.90
2018-04-22T00:28:33.672Z,6.33
2018-04-22T00:31:01.678Z,5.37
2018-04-22T00:33:29.877Z,6.80
2018-04-22T00:35:57.984Z,6.03
2018-04-22T00:38:25.603Z,4.77
2018-04-22T00:40:53.563Z,5.97
2018-04-22T00:43:22.037Z,3.93
2018-04-22T00:45:49.568Z,4.27
2018-04-22T00:48:17.840Z,9.10
2018-04-22T00:50:45.443Z,4.97
2018-04-22T00:53:13.966Z,7.63
2018-04-22T00:55:41.487Z,6.63
2018-04-22T00:58:09.007Z,5.50
2018-04-22T01:00:36.593Z,8.27
2018-04-22T01:03:05.071Z,3.90
2018-04-22T01:05:33.173Z,5.07
2018-04-22T01:08:00.712Z,7.50
2018-04-22T01:10:28.247Z,6.33
2018-04-22T01:12:57.206Z,4.90
2018-04-22T01:15:25.515Z,8.50
2018-04-22T01:17:53.089Z,6.47
2018-04-22T01:20:21.346Z,4.73
2018-04-22T01:22:48.943Z,4.00
2018-04-22T01:25:16.479Z,5.30
2018-04-22T01:27:44.858Z,4.60
2018-04-22T01:30:13.619Z,5.17
2018-04-22T01:32:41.152Z,9.67
2018-04-22T01:35:09.925Z,4.73
2018-04-22T01:37:37.933Z,9.47
2018-04-22T01:40:06.035Z,9.57
2018-04-22T01:42:33.979Z,5.60
2018-04-22T01:45:01.511Z,5.07
2018-04-22T01:47:29.788Z,4.47
2018-04-22T01:49:57.338Z,4.23
2018-04-22T01:52:26.954Z,6.83
2018-04-22T01:54:55.258Z,5.03
2018-04-22T01:57:22.786Z,6.97
2018-04-22T01:59:50.329Z,8.47
2018-04-22T02:02:17.975Z,7.73
2018-04-22T02:04:45.491Z,5.50
2018-04-22T02:07:13.850Z,4.07
2018-04-22T02:09:41.383Z,4.87
2018-04-22T02:12:08.994Z,7.07
2018-04-22T02:14:37.348Z,6.10
2018-04-22T02:17:04.904Z,6.27
2018-04-22T02:19:32.439Z,7.10
2018-04-22T02:21:59.995Z,7.10
2018-04-22T02:24:27.514Z,6.60
2018-04-22T02:26:55.553Z,4.30
2018-04-22T02:29:23.831Z,6.43
2018-04-22T02:31:51.363Z,10.17
2018-04-22T02:34:19.047Z,5.10
2018-04-22T02:36:46.612Z,6.13
2018-04-22T02:39:14.346Z,5.87
2018-04-22T02:41:42.959Z,5.90
2018-04-22T02:44:10.593Z,4.77
2018-04-22T02:46:38.129Z,7.23
2018-04-22T02:49:06.577Z,4.93
2018-04-22T02:51:34.834Z,4.47
2018-04-22T02:54:02.367Z,5.47
2018-04-22T02:56:29.924Z,7.40
2018-04-22T02:58:57.482Z,6.23
2018-04-22T03:01:25.013Z,8.70
2018-04-22T03:03:52.555Z,4.17
2018-04-22T03:06:20.107Z,7.63
2018-04-22T03:08:47.647Z,10.27
2018-04-22T03:11:15.321Z,4.07
2018-04-22T03:13:43.840Z,7.03
2018-04-22T03:16:11.359Z,4.10
2018-04-22T03:18:38.878Z,6.13
2018-04-22T03:21:06.455Z,6.10
2018-04-22T03:23:33.979Z,3.50
2018-04-22T03:26:02.093Z,3.87
2018-04-22T03:28:29.624Z,8.27
2018-04-22T03:30:57.155Z,8.73
2018-04-22T03:33:24.751Z,4.50
2018-04-22T03:35:52.323Z,5.27
2018-04-22T03:38:20.740Z,4.40
2018-04-22T03:40:49.696Z,7.37
2018-04-22T03:43:17.734Z,5.70
2018-04-22T03:45:45.906Z,8.47
2018-04-22T03:48:14.816Z,5.63
2018-04-22T03:50:43.038Z,8.47
2018-04-22T03:53:11.355Z,6.43
2018-04-22T03:55:38.891Z,8.23
2018-04-22T03:58:06.442Z,7.50
2018-04-22T04:00:34.007Z,6.50
2018-04-22T04:03:01.526Z,6.90
2018-04-22T04:05:29.067Z,7.27
2018-04-22T04:07:56.675Z,7.17
2018-04-22T04:10:24.195Z,3.53
2018-04-22T04:12:52.771Z,7.10
2018-04-22T04:15:20.304Z,5.27
2018-04-22T04:21:15.591Z,7.80
2018-04-22T04:27:12.968Z,4.63
2018-04-22T04:29:40.526Z,4.43
2018-04-22T04:32:08.117Z,4.73
2018-04-22T04:34:35.663Z,6.83
2018-04-22T04:37:03.179Z,3.33
2018-04-22T04:39:30.698Z,4.97
2018-04-22T04:41:59.123Z,4.73
2018-04-22T04:44:27.242Z,4.93
2018-04-22T04:46:54.881Z,7.03
2018-04-22T04:49:23.311Z,6.87
2018-04-22T04:51:51.511Z,4.47
2018-04-22T04:54:19.155Z,5.87
2018-04-22T04:56:46.716Z,4.90
2018-04-22T04:59:14.430Z,7.63
2018-04-22T05:01:41.957Z,6.43
2018-04-22T05:04:09.628Z,7.77
2018-04-22T05:06:37.213Z,5.63
2018-04-22T05:09:05.436Z,7.67
2018-04-22T05:11:32.963Z,7.97
2018-04-22T05:14:01.472Z,3.73
2018-04-22T05:16:28.999Z,6.40
2018-04-22T05:18:56.626Z,6.33
2018-04-22T05:21:24.303Z,5.83
2018-04-22T05:23:52.447Z,5.40
2018-04-22T05:26:20.687Z,5.00
2018-04-22T05:28:48.210Z,5.07
2018-04-22T05:31:15.818Z,5.40
2018-04-22T05:33:43.539Z,3.80
2018-04-22T05:36:11.281Z,4.97
2018-04-22T05:38:38.807Z,7.93
2018-04-22T05:41:06.879Z,4.60
2018-04-22T05:43:35.182Z,7.23
2018-04-22T05:46:02.713Z,8.83
2018-04-22T05:48:31.216Z,6.67
2018-04-22T05:50:59.333Z,4.07
2018-04-22T05:53:27.431Z,5.63
2018-04-22T05:55:55.044Z,3.97
2018-04-22T05:58:22.628Z,3.87
2018-04-22T06:00:50.324Z,4.00
2018-04-22T06:03:17.865Z,2.37
2018-04-22T06:05:45.390Z,3.40
2018-04-22T06:08:13.212Z,3.83
2018-04-22T06:10:40.733Z,2.43
2018-04-22T06:13:09.359Z,2.10
2018-04-22T06:15:36.883Z,5.20
2018-04-22T06:18:04.440Z,2.50
2018-04-22T06:20:32.008Z,2.47
2018-04-22T06:23:00.327Z,1.70
2018-04-22T06:25:27.882Z,2.57
2018-04-22T06:27:56.573Z,2.03
2018-04-22T06:30:24.111Z,1.37
2018-04-22T06:32:51.635Z,3.73
2018-04-22T06:35:19.207Z,1.70
2018-04-22T06:37:46.753Z,1.77
2018-04-22T06:40:15.037Z,1.30
2018-04-22T06:42:43.113Z,1.67
2018-04-22T06:45:10.642Z,1.27
2018-04-22T06:47:38.935Z,1.50
2018-04-22T06:50:07.253Z,1.70
2018-04-22T06:52:36.361Z,2.60
2018-04-22T06:55:03.915Z,1.87
2018-04-22T06:57:31.473Z,2.10
2018-04-22T06:59:59.053Z,2.43
2018-04-22T07:02:26.715Z,2.03
2018-04-22T07:04:54.369Z,1.73
2018-04-22T07:07:21.988Z,1.67
2018-04-22T07:09:50.145Z,1.00
2018-04-22T07:12:17.706Z,0.83
2018-04-22T07:14:46.076Z,2.63
2018-04-22T07:17:13.754Z,1.20
2018-04-22T07:19:41.290Z,1.50
2018-04-22T07:22:08.858Z,0.93
2018-04-22T07:24:37.292Z,1.73
2018-04-22T07:27:05.460Z,1.20
2018-04-22T07:29:32.995Z,1.50
2018-04-22T07:32:01.096Z,0.80
2018-04-22T07:34:28.643Z,2.03
2018-04-22T07:36:56.595Z,1.13
2018-04-22T07:39:24.362Z,2.10
2018-04-22T07:41:52.456Z,2.27
2018-04-22T07:44:20.007Z,1.20
2018-04-22T07:46:47.528Z,1.40
2018-04-22T07:49:16.012Z,1.80
2018-04-22T07:51:44.434Z,2.20
2018-04-22T07:54:11.976Z,1.33
2018-04-22T07:56:39.544Z,1.70
2018-04-22T07:59:07.142Z,0.87
2018-04-22T08:01:35.174Z,1.60
2018-04-22T08:04:02.735Z,1.23
2018-04-22T08:06:30.260Z,1.43
2018-04-22T08:08:57.814Z,0.97
2018-04-22T08:11:25.353Z,1.27
2018-04-22T08:13:53.430Z,0.90
2018-04-22T08:16:21.006Z,1.27
2018-04-22T08:18:48.535Z,1.90
2018-04-22T08:21:16.133Z,0.90
2018-04-22T08:23:43.688Z,1.90
2018-04-22T08:26:12.250Z,1.07
2018-04-22T08:28:39.843Z,1.37
2018-04-22T08:31:07.935Z,0.97
2018-04-22T08:33:36.119Z,1.77
2018-04-22T08:36:03.656Z,2.10
2018-04-22T08:38:31.949Z,2.17
2018-04-22T08:41:00.016Z,1.90
2018-04-22T08:43:28.314Z,1.00
2018-04-22T08:45:56.023Z,3.00
2018-04-22T08:48:24.139Z,1.27
2018-04-22T08:50:52.268Z,1.40
2018-04-22T08:53:20.166Z,0.90
2018-04-22T08:55:47.717Z,2.63
2018-04-22T08:58:15.243Z,1.27
2018-04-22T09:00:43.453Z,1.37
2018-04-22T09:03:11.759Z,1.13
2018-04-22T09:05:39.412Z,1.73
2018-04-22T09:08:06.964Z,1.27
2018-04-22T09:10:34.757Z,0.83
2018-04-22T09:13:02.907Z,1.63
2018-04-22T09:15:30.430Z,1.00
2018-04-22T09:17:57.970Z,1.83
2018-04-22T09:20:25.626Z,0.90
2018-04-22T09:22:53.163Z,1.90
2018-04-22T09:25:20.694Z,1.43
2018-04-22T09:27:49.168Z,1.43
2018-04-22T09:30:16.701Z,1.10
2018-04-22T09:32:44.715Z,1.27
2018-04-22T09:35:12.908Z,1.03
2018-04-22T09:37:40.449Z,1.60
2018-04-22T09:40:07.988Z,1.97
2018-04-22T09:42:36.219Z,0.90
2018-04-22T09:45:03.779Z,1.63
2018-04-22T09:47:32.426Z,1.33
2018-04-22T09:50:00.297Z,1.67
2018-04-22T09:52:28.672Z,1.20
2018-04-22T09:54:56.376Z,1.90
2018-04-22T09:57:23.906Z,1.50
2018-04-22T09:59:51.467Z,2.00
2018-04-22T10:02:24.681Z,1.23
2018-04-22T10:04:53.147Z,1.50
2018-04-22T10:07:20.671Z,0.80
2018-04-22T10:09:48.201Z,1.37
2018-04-22T10:12:15.762Z,1.47
2018-04-22T10:14:44.121Z,1.20
2018-04-22T10:17:11.651Z,1.57
2018-04-22T10:19:39.189Z,1.00
2018-04-22T10:22:06.810Z,2.27
2018-04-22T10:24:34.343Z,2.13
2018-04-22T10:27:02.485Z,1.90
2018-04-22T10:29:30.939Z,1.27
2018-04-22T10:31:59.450Z,2.60
2018-04-22T10:34:27.107Z,1.27
2018-04-22T10:36:56.073Z,3.33
2018-04-22T10:39:24.681Z,0.90
2018-04-22T10:41:53.306Z,3.63
2018-04-22T10:44:20.825Z,0.90
2018-04-22T10:46:48.415Z,1.90
2018-04-22T10:49:16.882Z,1.30
2018-04-22T10:51:45.062Z,1.27
2018-04-22T10:54:12.654Z,1.20
2018-04-22T10:56:40.896Z,2.40
2018-04-22T10:59:08.509Z,2.07
2018-04-22T11:01:36.015Z,1.40
2018-04-22T11:04:03.590Z,5.03
2018-04-22T11:06:31.131Z,1.53
2018-04-22T11:08:59.508Z,1.80
2018-04-22T11:11:27.100Z,1.23
2018-04-22T11:13:55.055Z,3.50
2018-04-22T11:16:22.596Z,1.00
2018-04-22T11:18:50.319Z,2.10
2018-04-22T11:21:17.894Z,1.20
2018-04-22T11:23:45.548Z,1.40
2018-04-22T11:26:13.826Z,1.07
2018-04-22T11:28:42.759Z,1.43
2018-04-22T11:31:10.315Z,1.67
2018-04-22T11:33:37.955Z,1.60
2018-04-22T11:36:05.509Z,1.57
2018-04-22T11:38:33.038Z,2.53
2018-04-22T11:41:01.147Z,3.10
2018-04-22T11:43:28.850Z,2.60
2018-04-22T11:45:56.370Z,1.70
2018-04-22T11:48:24.642Z,2.73
2018-04-22T11:50:52.831Z,1.50
2018-04-22T11:53:20.918Z,1.57
2018-04-22T11:55:48.445Z,1.37
2018-04-22T11:58:15.978Z,3.23
2018-04-22T12:00:45.332Z,1.43
2018-04-22T12:03:13.194Z,2.87
2018-04-22T12:05:40.906Z,1.47
2018-04-22T12:08:09.182Z,1.00
2018-04-22T12:10:36.710Z,1.43
2018-04-22T12:13:05.163Z,2.73
2018-04-22T12:15:32.727Z,1.93
2018-04-22T12:18:00.263Z,1.40
2018-04-22T12:20:28.066Z,1.40
2018-04-22T12:22:55.595Z,1.70
2018-04-22T12:25:23.970Z,1.83
2018-04-22T12:27:52.450Z,2.10
2018-04-22T12:30:19.975Z,1.07
2018-04-22T12:32:47.516Z,2.87
2018-04-22T12:35:15.111Z,0.80
2018-04-22T12:37:43.052Z,1.17
2018-04-22T12:40:10.728Z,0.93
2018-04-22T12:42:38.792Z,1.17
2018-04-22T12:45:06.326Z,1.43
2018-04-22T12:47:34.418Z,1.00
2018-04-22T12:50:02.871Z,2.13
2018-04-22T12:52:31.234Z,1.80
2018-04-22T12:54:58.980Z,2.10
2018-04-22T12:57:26.507Z,0.93
2018-04-22T12:59:54.732Z,1.40
2018-04-22T13:02:22.266Z,1.10
2018-04-22T13:04:49.809Z,3.07
2018-04-22T13:07:17.379Z,0.80
2018-04-22T13:09:45.486Z,1.93
2018-04-22T13:12:13.675Z,1.80
2018-04-22T13:14:41.757Z,2.33
2018-04-22T13:17:09.320Z,1.23
2018-04-22T13:19:36.906Z,1.60
2018-04-22T13:22:05.322Z,1.27
2018-04-22T13:24:32.867Z,0.80
2018-04-22T13:27:01.164Z,1.43
2018-04-22T13:29:29.503Z,1.80
2018-04-22T13:31:57.097Z,1.80
2018-04-22T13:34:24.665Z,1.03
2018-04-22T13:36:52.200Z,1.30
2018-04-22T13:39:19.724Z,1.80
2018-04-22T13:41:48.009Z,2.03
2018-04-22T13:44:15.535Z,0.77
2018-04-22T13:46:43.712Z,1.23
2018-04-22T13:49:11.886Z,1.50
2018-04-22T13:51:40.035Z,1.07
2018-04-22T13:54:07.574Z,1.40
2018-04-22T13:56:35.129Z,0.83
2018-04-22T13:59:02.698Z,2.07
2018-04-22T14:01:30.227Z,0.83
2018-04-22T14:03:57.821Z,1.73
2018-04-22T14:06:26.254Z,0.80
2018-04-22T14:08:54.384Z,2.37
2018-04-22T14:11:21.948Z,4.00
2018-04-22T14:13:49.882Z,1.43
2018-04-22T14:16:17.409Z,1.87
2018-04-22T14:18:44.952Z,1.77
2018-04-22T14:21:13.123Z,1.30
2018-04-22T14:23:40.650Z,1.60
2018-04-22T14:26:08.746Z,2.30
2018-04-22T14:28:36.349Z,3.67
2018-04-22T14:31:03.931Z,1.30
2018-04-22T14:33:31.526Z,1.30
2018-04-22T14:35:59.279Z,1.33
2018-04-22T14:38:26.860Z,1.87
2018-04-22T14:40:55.225Z,1.77
2018-04-22T14:43:22.747Z,2.70
2018-04-22T14:46:02.125Z,1.87
2018-04-22T14:48:30.374Z,3.33
2018-04-22T14:50:58.703Z,3.47
2018-04-22T14:53:27.000Z,1.63
2018-04-22T14:55:54.530Z,2.10
2018-04-22T14:58:22.063Z,1.00
2018-04-22T15:00:50.379Z,2.50
2018-04-22T15:03:17.910Z,5.13
2018-04-22T15:05:46.242Z,1.90
2018-04-22T15:08:14.354Z,1.80
2018-04-22T15:10:41.898Z,3.23
2018-04-22T15:13:10.087Z,1.27
2018-04-22T15:15:37.623Z,1.47
2018-04-22T15:18:05.758Z,3.13
2018-04-22T15:20:33.308Z,2.70
2018-04-22T15:23:01.774Z,1.37
2018-04-22T15:25:29.436Z,2.27
2018-04-22T15:27:57.529Z,1.47
2018-04-22T15:30:25.105Z,0.93
2018-04-22T15:32:52.639Z,3.43
2018-04-22T15:35:20.194Z,1.30
2018-04-22T15:37:47.735Z,3.50
2018-04-22T15:40:15.259Z,1.47
2018-04-22T15:42:43.603Z,1.60
2018-04-22T15:45:11.200Z,0.93
2018-04-22T15:47:39.852Z,1.80
2018-04-22T15:50:07.982Z,1.53
2018-04-22T15:52:35.875Z,2.63
2018-04-22T15:55:04.227Z,1.60
2018-04-22T15:57:31.805Z,2.87
2018-04-22T16:00:00.055Z,1.30
2018-04-22T16:02:27.642Z,1.57
2018-04-22T16:04:56.001Z,0.93
2018-04-22T16:07:23.549Z,2.50
2018-04-22T16:09:51.500Z,1.50
2018-04-22T16:12:19.279Z,1.97
2018-04-22T16:14:47.361Z,2.30
2018-04-22T16:17:14.942Z,2.20
2018-04-22T16:19:43.113Z,0.93
2018-04-22T16:22:10.684Z,1.03
2018-04-22T16:24:38.220Z,1.40
2018-04-22T16:27:07.085Z,1.10
2018-04-22T16:29:34.615Z,1.23
2018-04-22T16:32:02.159Z,1.37
2018-04-22T16:34:29.868Z,1.70
2018-04-22T16:36:57.407Z,1.37
2018-04-22T16:39:24.983Z,2.70
2018-04-22T16:41:53.257Z,0.70
2018-04-22T16:44:20.791Z,2.30
2018-04-22T16:46:48.334Z,1.23
2018-04-22T16:49:16.827Z,1.40
2018-04-22T16:51:45.116Z,2.87
2018-04-22T16:54:13.427Z,1.40
2018-04-22T16:56:40.971Z,1.17
2018-04-22T16:59:09.028Z,2.97
2018-04-22T17:01:36.579Z,1.30
2018-04-22T17:04:04.112Z,2.40
2018-04-22T17:06:32.452Z,3.20
2018-04-22T17:09:00.794Z,1.43
2018-04-22T17:11:28.391Z,4.03
2018-04-22T17:13:56.696Z,2.03
2018-04-22T17:16:24.218Z,1.70
2018-04-22T17:18:51.783Z,4.03
2018-04-22T17:21:19.339Z,1.83
2018-04-22T17:23:46.870Z,2.17
2018-04-22T17:26:15.832Z,2.03
2018-04-22T17:28:43.773Z,2.13
2018-04-22T17:31:11.356Z,1.63
2018-04-22T17:33:39.039Z,1.13
2018-04-22T17:36:06.567Z,1.67
2018-04-22T17:38:34.692Z,3.30
2018-04-22T17:41:02.892Z,1.60
2018-04-22T17:43:30.420Z,2.20
2018-04-22T17:45:58.641Z,2.10
2018-04-22T17:48:26.715Z,0.90
2018-04-22T17:50:55.023Z,2.67
2018-04-22T17:53:23.325Z,1.03
2018-04-22T17:55:51.604Z,1.50
2018-04-22T17:58:19.865Z,0.90
2018-04-22T18:00:47.444Z,1.63
2018-04-22T18:03:15.096Z,1.03
2018-04-22T18:05:43.623Z,1.47
2018-04-22T18:08:11.835Z,0.87
2018-04-22T18:10:39.984Z,1.07
2018-04-22T18:13:08.335Z,1.83
2018-04-22T18:15:35.862Z,0.80
2018-04-22T18:18:03.403Z,1.60
2018-04-22T18:20:30.982Z,5.00
2018-04-22T18:22:58.710Z,1.83
2018-04-22T18:25:26.256Z,1.00
2018-04-22T18:27:54.291Z,5.07
2018-04-22T18:30:21.896Z,2.63
2018-04-22T18:32:49.425Z,1.43
2018-04-22T18:35:17.176Z,0.97
2018-04-22T18:37:44.827Z,2.00
2018-04-22T18:40:13.671Z,1.07
2018-04-22T18:42:42.027Z,2.17
2018-04-22T18:45:09.568Z,1.20
2018-04-22T18:47:37.571Z,3.23
2018-04-22T18:50:05.738Z,1.80
2018-04-22T18:52:33.807Z,1.93
2018-04-22T18:55:02.019Z,1.40
2018-04-22T18:57:29.586Z,1.90
2018-04-22T18:59:57.917Z,1.03
2018-04-22T19:02:25.451Z,1.60
2018-04-22T19:04:53.838Z,1.17
2018-04-22T19:07:22.195Z,1.37
2018-04-22T19:09:50.176Z,2.13
2018-04-22T19:12:17.714Z,0.93
2018-04-22T19:14:45.783Z,1.77
2018-04-22T19:17:14.268Z,1.40
2018-04-22T19:19:41.832Z,2.27
2018-04-22T19:22:09.354Z,1.73
2018-04-22T19:24:38.274Z,0.90
2018-04-22T19:27:06.142Z,2.37
2018-04-22T19:29:33.687Z,1.50
2018-04-22T19:32:01.217Z,6.00
2018-04-22T19:34:28.803Z,1.20
2018-04-22T19:36:56.327Z,3.20
2018-04-22T19:39:23.860Z,1.30
2018-04-22T19:41:52.559Z,2.13
2018-04-22T19:44:20.095Z,2.20
2018-04-22T19:46:47.783Z,2.30
2018-04-22T19:49:16.144Z,1.10
2018-04-22T19:51:44.518Z,1.40
2018-04-22T19:54:12.710Z,2.53
2018-04-22T19:56:40.358Z,2.00
2018-04-22T19:59:07.927Z,2.00
2018-04-22T20:01:35.516Z,1.20
2018-04-22T20:04:03.055Z,1.90
2018-04-22T20:06:31.280Z,1.40
2018-04-22T20:08:58.851Z,2.10
2018-04-22T20:11:26.382Z,1.40
2018-04-22T20:13:54.922Z,3.27
2018-04-22T20:16:22.453Z,1.33
2018-04-22T20:18:49.999Z,2.40
2018-04-22T20:21:17.554Z,1.13
2018-04-22T20:23:45.091Z,1.97
2018-04-22T20:26:13.602Z,1.20
2018-04-22T20:28:41.286Z,1.33
2018-04-22T20:31:08.819Z,2.30
2018-04-22T20:33:36.421Z,1.17
2018-04-22T20:36:03.954Z,1.70
2018-04-22T20:38:31.516Z,1.10
2018-04-22T20:40:59.767Z,2.73
2018-04-22T20:43:27.286Z,1.50
2018-04-22T20:45:54.846Z,5.00
2018-04-22T20:48:23.107Z,1.10
2018-04-22T20:50:51.144Z,1.93
2018-04-22T20:53:19.346Z,2.10
2018-04-22T20:55:47.255Z,2.17
2018-04-22T20:58:15.787Z,1.00
2018-04-22T21:00:43.459Z,1.33
2018-04-22T21:03:11.490Z,1.10
2018-04-22T21:05:39.730Z,0.97
2018-04-22T21:08:08.039Z,1.63
2018-04-22T21:10:35.593Z,2.00
2018-04-22T21:13:04.131Z,2.33
2018-04-22T21:15:31.658Z,1.13
2018-04-22T21:18:00.049Z,4.77
2018-04-22T21:20:27.585Z,1.17
2018-04-22T21:22:55.134Z,2.20
2018-04-22T21:25:22.698Z,4.83
2018-04-22T21:27:50.957Z,2.00
2018-04-22T21:30:18.509Z,1.57
2018-04-22T21:32:46.047Z,1.27
2018-04-22T21:35:13.754Z,1.70
2018-04-22T21:37:41.295Z,1.23
2018-04-22T21:40:08.829Z,1.73
2018-04-22T21:42:36.883Z,1.00
2018-04-22T21:45:04.442Z,1.83
2018-04-22T21:47:32.685Z,1.00
2018-04-22T21:50:00.989Z,3.10
2018-04-22T21:52:29.287Z,1.30
2018-04-22T21:54:57.443Z,2.37
2018-04-22T21:57:25.034Z,1.33
2018-04-22T21:59:52.578Z,1.97
2018-04-22T22:02:20.723Z,1.70
2018-04-22T22:04:49.115Z,3.53
2018-04-22T22:07:16.648Z,1.70
2018-04-22T22:09:44.407Z,1.63
2018-04-22T22:12:11.963Z,1.33
2018-04-22T22:14:40.311Z,1.23
2018-04-22T22:17:07.850Z,1.97
2018-04-22T22:19:35.600Z,1.00
2018-04-22T22:22:03.252Z,1.90
2018-04-22T22:24:30.857Z,1.80
2018-04-22T22:26:59.267Z,2.77
2018-04-22T22:29:26.794Z,1.23
2018-04-22T22:31:54.349Z,3.37
2018-04-22T22:34:21.922Z,1.57
2018-04-22T22:36:50.319Z,1.37
2018-04-22T22:39:17.858Z,2.57
2018-04-22T22:41:46.136Z,1.23
2018-04-22T22:44:13.818Z,2.10
2018-04-22T22:46:41.409Z,1.07
2018-04-22T22:49:09.632Z,2.33
2018-04-22T22:51:37.978Z,2.03
2018-04-22T22:54:06.267Z,2.33
2018-04-22T22:56:33.786Z,1.10
2018-04-22T22:59:01.983Z,1.90
2018-04-22T23:01:29.526Z,1.13
2018-04-22T23:03:57.094Z,2.20
2018-04-22T23:06:25.160Z,3.07
2018-04-22T23:08:52.723Z,1.23
2018-04-22T23:11:20.277Z,1.80
2018-04-22T23:13:48.790Z,0.93
2018-04-22T23:16:16.323Z,2.77
2018-04-22T23:18:44.005Z,0.80
2018-04-22T23:21:11.565Z,4.27
2018-04-22T23:23:39.101Z,0.97
2018-04-22T23:26:07.935Z,1.80
2018-04-22T23:28:35.492Z,1.27
2018-04-22T23:31:03.113Z,2.07
2018-04-22T23:33:30.712Z,1.40
2018-04-22T23:35:58.419Z,2.07
2018-04-22T23:38:25.963Z,3.03
2018-04-22T23:40:54.270Z,1.10
2018-04-22T23:43:21.802Z,1.43
2018-04-22T23:45:49.337Z,1.13
2018-04-22T23:48:17.764Z,1.67
2018-04-22T23:50:46.068Z,1.77
2018-04-22T23:53:14.357Z,2.00
2018-04-22T23:55:42.512Z,1.53
2018-04-22T23:58:10.051Z,1.00
